createdAt,value
2022-10-11T00:00:13.619Z,0.70
2022-10-11T00:00:44.952Z,0.88
2022-10-11T00:01:16.404Z,0.90
2022-10-11T00:01:47.959Z,0.95
2022-10-11T00:02:19.362Z,0.82
2022-10-11T00:02:50.749Z,0.80
2022-10-11T00:03:22.192Z,0.90
2022-10-11T00:03:53.522Z,0.90
2022-10-11T00:04:24.920Z,0.95
2022-10-11T00:04:56.254Z,1.10
2022-10-11T00:05:27.776Z,1.10
2022-10-11T00:05:59.104Z,1.10
2022-10-11T00:06:30.445Z,1.30
2022-10-11T00:07:01.788Z,0.82
2022-10-11T00:07:33.176Z,0.77
2022-10-11T00:08:04.684Z,0.88
2022-10-11T00:08:36.219Z,1.20
2022-10-11T00:09:07.586Z,0.77
2022-10-11T00:09:38.966Z,1.00
2022-10-11T00:10:10.461Z,0.80
2022-10-11T00:10:41.846Z,0.98
2022-10-11T00:11:13.222Z,0.70
2022-10-11T00:11:44.551Z,0.50
2022-10-11T00:12:15.919Z,0.75
2022-10-11T00:12:47.546Z,0.70
2022-10-11T00:13:19.021Z,1.30
2022-10-11T00:13:50.351Z,0.80
2022-10-11T00:14:22.209Z,0.70
2022-10-11T00:14:53.541Z,0.90
2022-10-11T00:15:24.992Z,1.40
2022-10-11T00:15:56.532Z,0.70
2022-10-11T00:16:27.944Z,0.73
2022-10-11T00:16:59.387Z,0.83
2022-10-11T00:17:31.415Z,1.08
2022-10-11T00:18:05.424Z,1.10
2022-10-11T00:18:37.335Z,1.20
2022-10-11T00:19:08.696Z,0.60
2022-10-11T00:19:40.044Z,0.50
2022-10-11T00:20:11.791Z,1.02
2022-10-11T00:20:43.154Z,0.98
2022-10-11T00:21:17.341Z,0.60
2022-10-11T00:21:48.658Z,0.60
2022-10-11T00:22:20.003Z,0.93
2022-10-11T00:22:51.370Z,1.00
2022-10-11T00:23:22.714Z,0.60
2022-10-11T00:23:54.035Z,1.15
2022-10-11T00:24:25.414Z,0.52
2022-10-11T00:24:56.769Z,1.17
2022-10-11T00:25:28.121Z,0.98
2022-10-11T00:26:00.275Z,0.60
2022-10-11T00:26:31.712Z,0.60
2022-10-11T00:27:03.049Z,0.70
2022-10-11T00:27:35.174Z,0.52
2022-10-11T00:28:06.619Z,0.80
2022-10-11T00:28:38.185Z,0.60
2022-10-11T00:29:09.636Z,0.77
2022-10-11T00:29:40.976Z,0.85
2022-10-11T00:30:12.663Z,0.98
2022-10-11T00:30:44.043Z,1.00
2022-10-11T00:31:15.552Z,1.38
2022-10-11T00:31:46.949Z,0.73
2022-10-11T00:32:18.292Z,0.70
2022-10-11T00:32:49.749Z,0.73
2022-10-11T00:33:21.278Z,0.80
2022-10-11T00:33:53.848Z,1.02
2022-10-11T00:34:25.410Z,0.80
2022-10-11T00:34:56.832Z,0.77
2022-10-11T00:35:28.170Z,1.25
2022-10-11T00:35:59.956Z,0.60
2022-10-11T00:36:31.329Z,1.20
2022-10-11T00:37:02.802Z,0.93
2022-10-11T00:37:34.754Z,0.85
2022-10-11T00:38:06.298Z,2.13
2022-10-11T00:38:39.239Z,1.00
2022-10-11T00:39:10.714Z,0.70
2022-10-11T00:39:42.079Z,0.80
2022-10-11T00:40:15.015Z,0.88
2022-10-11T00:40:46.365Z,0.73
2022-10-11T00:41:18.025Z,0.77
2022-10-11T00:41:49.549Z,0.80
2022-10-11T00:42:20.899Z,1.05
2022-10-11T00:42:52.677Z,1.08
2022-10-11T00:43:25.231Z,1.00
2022-10-11T00:44:12.757Z,0.73
2022-10-11T00:44:46.597Z,0.90
2022-10-11T00:45:26.902Z,0.70
2022-10-11T00:45:58.233Z,0.77
2022-10-11T00:46:30.817Z,0.80
2022-10-11T00:47:04.766Z,0.75
2022-10-11T00:47:36.232Z,0.95
2022-10-11T00:48:11.633Z,0.93
2022-10-11T00:48:44.808Z,0.77
2022-10-11T00:49:28.459Z,0.90
2022-10-11T00:50:01.624Z,0.60
2022-10-11T00:50:33.872Z,0.73
2022-10-11T00:51:07.866Z,0.73
2022-10-11T00:51:45.793Z,0.90
2022-10-11T00:52:22.800Z,0.95
2022-10-11T00:52:56.616Z,0.80
2022-10-11T00:53:29.742Z,1.02
2022-10-11T00:54:01.522Z,0.70
2022-10-11T00:54:35.396Z,0.93
2022-10-11T00:55:09.119Z,1.13
2022-10-11T00:55:46.800Z,0.85
2022-10-11T00:56:24.812Z,1.00
2022-10-11T00:56:59.167Z,0.60
2022-10-11T00:57:31.824Z,0.60
2022-10-11T00:58:03.270Z,0.50
2022-10-11T00:58:35.985Z,0.82
2022-10-11T00:59:12.619Z,0.60
2022-10-11T00:59:45.271Z,0.90
2022-10-11T01:00:16.676Z,0.93
2022-10-11T01:00:48.083Z,1.75
2022-10-11T01:01:19.693Z,0.75
2022-10-11T01:01:51.212Z,1.27
2022-10-11T01:02:23.238Z,0.50
2022-10-11T01:02:54.835Z,1.40
2022-10-11T01:03:26.754Z,0.80
2022-10-11T01:03:58.177Z,0.85
2022-10-11T01:04:29.574Z,0.82
2022-10-11T01:05:27.775Z,1.08
2022-10-11T01:05:52.775Z,1.00
2022-10-11T01:06:24.399Z,0.70
2022-10-11T01:06:56.036Z,0.55
2022-10-11T01:07:28.359Z,1.00
2022-10-11T01:08:00.170Z,1.25
2022-10-11T01:08:31.535Z,1.30
2022-10-11T01:09:03.186Z,1.10
2022-10-11T01:09:34.588Z,0.57
2022-10-11T01:10:06.062Z,1.02
2022-10-11T01:10:37.399Z,0.50
2022-10-11T01:11:17.035Z,0.70
2022-10-11T01:11:49.200Z,0.75
2022-10-11T01:12:23.120Z,0.80
2022-10-11T01:13:13.352Z,0.65
2022-10-11T01:13:50.738Z,0.88
2022-10-11T01:14:34.338Z,1.25
2022-10-11T01:15:32.370Z,0.65
2022-10-11T01:16:04.022Z,0.82
2022-10-11T01:16:35.540Z,0.85
2022-10-11T01:17:20.736Z,0.77
2022-10-11T01:18:04.037Z,0.97
2022-10-11T01:18:43.102Z,0.55
2022-10-11T01:19:25.037Z,0.98
2022-10-11T01:20:05.541Z,1.05
2022-10-11T01:20:51.308Z,1.20
2022-10-11T01:21:30.528Z,0.80
2022-10-11T01:22:07.926Z,0.75
2022-10-11T01:22:49.016Z,0.57
2022-10-11T01:23:26.334Z,1.00
2022-10-11T01:24:04.684Z,0.93
2022-10-11T01:24:44.777Z,0.73
2022-10-11T01:25:35.830Z,0.80
2022-10-11T01:26:16.087Z,0.98
2022-10-11T01:26:56.482Z,1.08
2022-10-11T01:27:36.857Z,0.50
2022-10-11T01:28:08.231Z,0.90
2022-10-11T01:28:49.167Z,0.93
2022-10-11T01:29:23.383Z,0.77
2022-10-11T01:30:03.776Z,0.85
2022-10-11T01:30:36.374Z,1.35
2022-10-11T01:31:12.283Z,1.08
2022-10-11T01:31:53.773Z,1.45
2022-10-11T01:32:32.816Z,0.60
2022-10-11T01:33:04.166Z,1.40
2022-10-11T01:33:35.483Z,1.10
2022-10-11T01:34:29.895Z,0.80
2022-10-11T01:35:14.917Z,0.90
2022-10-11T01:35:46.216Z,0.60
2022-10-11T01:36:32.703Z,1.38
2022-10-11T01:37:05.757Z,1.00
2022-10-11T01:37:38.857Z,1.65
2022-10-11T01:38:28.612Z,0.60
2022-10-11T01:39:04.000Z,1.05
2022-10-11T01:39:50.127Z,0.95
2022-10-11T01:40:23.924Z,0.60
2022-10-11T01:40:58.323Z,0.85
2022-10-11T01:41:39.552Z,1.20
2022-10-11T01:42:12.215Z,0.77
2022-10-11T01:42:44.025Z,0.75
2022-10-11T01:43:16.486Z,0.60
2022-10-11T01:43:49.949Z,1.10
2022-10-11T01:44:25.958Z,0.68
2022-10-11T01:44:58.578Z,1.60
2022-10-11T01:45:30.441Z,1.77
2022-10-11T01:46:02.682Z,1.00
2022-10-11T01:46:34.428Z,1.17
2022-10-11T01:47:05.825Z,0.88
2022-10-11T01:47:37.153Z,0.63
2022-10-11T01:48:10.004Z,1.20
2022-10-11T01:48:48.807Z,1.15
2022-10-11T01:49:20.448Z,0.73
2022-10-11T01:49:59.259Z,0.65
2022-10-11T01:50:34.073Z,1.00
2022-10-11T01:51:05.485Z,0.93
2022-10-11T01:51:45.208Z,1.08
2022-10-11T01:52:18.581Z,0.70
2022-10-11T01:52:50.536Z,0.63
2022-10-11T01:53:39.266Z,1.02
2022-10-11T01:54:44.122Z,0.77
2022-10-11T01:55:31.295Z,0.85
2022-10-11T01:56:15.400Z,1.38
2022-10-11T01:56:52.026Z,0.80
2022-10-11T01:57:23.326Z,0.98
2022-10-11T01:58:03.607Z,0.98
2022-10-11T01:58:40.462Z,1.05
2022-10-11T01:59:17.415Z,0.70
2022-10-11T01:59:58.742Z,0.80
2022-10-11T02:00:33.452Z,0.60
2022-10-11T02:01:04.807Z,1.23
2022-10-11T02:01:48.222Z,0.95
2022-10-11T02:02:25.467Z,1.10
2022-10-11T02:03:15.607Z,1.17
2022-10-11T02:03:50.326Z,1.17
2022-10-11T02:04:30.608Z,0.80
2022-10-11T02:05:20.887Z,0.73
2022-10-11T02:06:08.777Z,1.27
2022-10-11T02:06:46.090Z,1.17
2022-10-11T02:07:33.616Z,0.90
2022-10-11T02:08:08.234Z,1.65
2022-10-11T02:08:49.587Z,1.38
2022-10-11T02:09:26.711Z,0.70
2022-10-11T02:10:18.279Z,0.90
2022-10-11T02:10:58.820Z,1.35
2022-10-11T02:11:31.514Z,1.30
2022-10-11T02:12:06.200Z,1.30
2022-10-11T02:12:39.711Z,1.30
2022-10-11T02:13:17.109Z,1.20
2022-10-11T02:14:11.647Z,0.90
2022-10-11T02:14:45.683Z,1.10
2022-10-11T02:15:17.536Z,1.20
2022-10-11T02:15:49.556Z,1.05
2022-10-11T02:16:23.327Z,1.25
2022-10-11T02:16:59.978Z,0.80
2022-10-11T02:17:33.923Z,0.90
2022-10-11T02:18:08.188Z,0.80
2022-10-11T02:18:44.096Z,0.93
2022-10-11T02:19:18.257Z,1.38
2022-10-11T02:19:52.179Z,0.90
2022-10-11T02:20:24.962Z,1.10
2022-10-11T02:20:57.173Z,1.58
2022-10-11T02:21:29.194Z,1.17
2022-10-11T02:22:03.299Z,1.17
2022-10-11T02:22:36.693Z,0.88
2022-10-11T02:23:10.633Z,1.30
2022-10-11T02:23:45.152Z,1.38
2022-10-11T02:24:18.981Z,0.90
2022-10-11T02:24:52.535Z,1.73
2022-10-11T02:25:26.107Z,1.30
2022-10-11T02:25:57.656Z,0.77
2022-10-11T02:26:30.518Z,1.00
2022-10-11T02:27:02.875Z,1.02
2022-10-11T02:27:36.676Z,1.10
2022-10-11T02:28:11.200Z,1.38
2022-10-11T02:28:43.254Z,1.60
2022-10-11T02:29:16.454Z,0.80
2022-10-11T02:29:48.976Z,1.40
2022-10-11T02:30:20.424Z,0.60
2022-10-11T02:30:52.648Z,0.80
2022-10-11T02:31:25.006Z,0.80
2022-10-11T02:31:56.943Z,1.10
2022-10-11T02:32:30.076Z,1.75
2022-10-11T02:33:03.656Z,1.67
2022-10-11T02:33:53.492Z,1.50
2022-10-11T02:34:27.430Z,0.88
2022-10-11T02:35:00.222Z,0.90
2022-10-11T02:35:35.704Z,1.25
2022-10-11T02:36:11.124Z,1.60
2022-10-11T02:36:42.429Z,1.02
2022-10-11T02:37:28.013Z,1.15
2022-10-11T02:38:05.134Z,0.98
2022-10-11T02:38:41.376Z,1.00
2022-10-11T02:39:16.757Z,1.40
2022-10-11T02:39:56.267Z,1.33
2022-10-11T02:40:31.589Z,1.00
2022-10-11T02:41:10.822Z,1.10
2022-10-11T02:41:42.213Z,0.90
2022-10-11T02:42:33.792Z,0.93
2022-10-11T02:43:14.152Z,0.60
2022-10-11T02:43:49.769Z,1.23
2022-10-11T02:44:27.392Z,1.40
2022-10-11T02:45:10.805Z,1.13
2022-10-11T02:45:44.624Z,0.90
2022-10-11T02:46:17.718Z,1.47
2022-10-11T02:46:50.116Z,1.17
2022-10-11T02:47:21.509Z,1.02
2022-10-11T02:47:53.104Z,2.03
2022-10-11T02:48:24.678Z,1.20
2022-10-11T02:48:57.476Z,1.58
2022-10-11T02:49:29.466Z,1.10
2022-10-11T02:50:01.293Z,1.27
2022-10-11T02:50:32.734Z,0.95
2022-10-11T02:51:04.423Z,0.90
2022-10-11T02:51:35.977Z,0.98
2022-10-11T02:52:07.367Z,1.23
2022-10-11T02:52:38.748Z,1.30
2022-10-11T02:53:10.127Z,1.35
2022-10-11T02:53:41.487Z,1.15
2022-10-11T02:54:12.858Z,1.00
2022-10-11T02:54:44.185Z,1.55
2022-10-11T02:55:15.523Z,1.15
2022-10-11T02:55:47.963Z,1.03
2022-10-11T02:56:19.436Z,1.10
2022-10-11T02:56:50.914Z,2.05
2022-10-11T02:57:22.305Z,1.00
2022-10-11T02:57:53.691Z,1.80
2022-10-11T02:58:25.205Z,1.30
2022-10-11T02:58:56.571Z,1.30
2022-10-11T02:59:28.096Z,1.20
2022-10-11T02:59:59.427Z,1.20
2022-10-11T03:00:31.123Z,1.20
2022-10-11T03:01:02.475Z,1.42
2022-10-11T03:01:34.055Z,1.30
2022-10-11T03:02:05.555Z,1.38
2022-10-11T03:02:37.195Z,1.23
2022-10-11T03:03:08.557Z,1.33
2022-10-11T03:03:39.920Z,1.52
2022-10-11T03:04:11.251Z,1.93
2022-10-11T03:04:42.656Z,1.42
2022-10-11T03:05:13.999Z,1.20
2022-10-11T03:05:45.529Z,1.33
2022-10-11T03:06:16.940Z,1.20
2022-10-11T03:06:48.257Z,1.02
2022-10-11T03:07:19.670Z,1.25
2022-10-11T03:07:51.012Z,1.30
2022-10-11T03:08:22.342Z,1.08
2022-10-11T03:08:53.927Z,1.40
2022-10-11T03:09:25.365Z,1.67
2022-10-11T03:09:56.780Z,1.10
2022-10-11T03:10:28.185Z,2.30
2022-10-11T03:10:59.539Z,1.42
2022-10-11T03:11:30.904Z,1.60
2022-10-11T03:12:02.420Z,1.35
2022-10-11T03:12:33.757Z,0.98
2022-10-11T03:13:05.117Z,1.65
2022-10-11T03:13:36.450Z,1.50
2022-10-11T03:14:07.815Z,1.20
2022-10-11T03:14:39.143Z,2.28
2022-10-11T03:15:10.599Z,1.13
2022-10-11T03:15:41.946Z,1.00
2022-10-11T03:16:13.734Z,1.13
2022-10-11T03:16:45.434Z,1.42
2022-10-11T03:17:35.531Z,1.00
2022-10-11T03:18:08.091Z,1.15
2022-10-11T03:18:39.470Z,1.38
2022-10-11T03:19:12.283Z,1.15
2022-10-11T03:19:45.072Z,0.98
2022-10-11T03:20:16.565Z,1.17
2022-10-11T03:20:47.928Z,0.60
2022-10-11T03:21:19.255Z,1.65
2022-10-11T03:21:50.635Z,1.70
2022-10-11T03:22:22.055Z,0.75
2022-10-11T03:22:53.453Z,1.10
2022-10-11T03:23:24.807Z,1.35
2022-10-11T03:23:56.072Z,1.50
2022-10-11T03:24:27.470Z,1.17
2022-10-11T03:25:03.660Z,1.30
2022-10-11T03:25:36.125Z,1.30
2022-10-11T03:26:08.072Z,1.77
2022-10-11T03:26:39.874Z,1.75
2022-10-11T03:27:11.556Z,1.20
2022-10-11T03:27:43.028Z,1.73
2022-10-11T03:28:14.417Z,1.17
2022-10-11T03:28:45.897Z,1.33
2022-10-11T03:29:17.372Z,1.15
2022-10-11T03:29:48.761Z,1.35
2022-10-11T03:30:20.095Z,1.58
2022-10-11T03:30:51.619Z,1.45
2022-10-11T03:31:22.961Z,1.00
2022-10-11T03:31:54.278Z,1.60
2022-10-11T03:32:25.696Z,2.08
2022-10-11T03:32:57.074Z,1.60
2022-10-11T03:33:28.480Z,1.35
2022-10-11T03:33:59.843Z,1.63
2022-10-11T03:34:31.190Z,1.48
2022-10-11T03:35:02.782Z,1.50
2022-10-11T03:35:34.134Z,1.92
2022-10-11T03:36:06.014Z,2.13
2022-10-11T03:36:37.651Z,1.90
2022-10-11T03:37:09.005Z,1.25
2022-10-11T03:37:40.401Z,1.15
2022-10-11T03:38:13.098Z,1.48
2022-10-11T03:38:44.581Z,1.92
2022-10-11T03:39:15.977Z,1.65
2022-10-11T03:39:47.416Z,2.00
2022-10-11T03:40:18.824Z,1.60
2022-10-11T03:40:50.414Z,1.20
2022-10-11T03:41:21.896Z,1.30
2022-10-11T03:41:53.303Z,1.10
2022-10-11T03:42:24.812Z,1.38
2022-10-11T03:42:56.157Z,1.30
2022-10-11T03:43:27.656Z,1.63
2022-10-11T03:43:59.036Z,1.52
2022-10-11T03:44:30.969Z,2.40
2022-10-11T03:45:02.414Z,1.45
2022-10-11T03:45:33.744Z,1.73
2022-10-11T03:46:05.361Z,1.30
2022-10-11T03:46:36.966Z,1.85
2022-10-11T03:47:08.586Z,1.70
2022-10-11T03:47:39.971Z,1.80
2022-10-11T03:48:11.778Z,1.52
2022-10-11T03:48:43.303Z,2.00
2022-10-11T03:49:14.680Z,2.10
2022-10-11T03:49:46.035Z,1.50
2022-10-11T03:50:17.456Z,1.45
2022-10-11T03:50:49.078Z,2.15
2022-10-11T03:51:20.563Z,1.90
2022-10-11T03:51:51.940Z,1.92
2022-10-11T03:52:23.349Z,1.42
2022-10-11T03:52:54.700Z,1.35
2022-10-11T03:53:26.041Z,1.27
2022-10-11T03:53:57.564Z,1.30
2022-10-11T03:54:28.902Z,2.03
2022-10-11T03:55:00.475Z,1.85
2022-10-11T03:55:31.823Z,1.23
2022-10-11T03:56:08.061Z,1.50
2022-10-11T03:56:39.724Z,1.38
2022-10-11T03:57:11.082Z,1.38
2022-10-11T03:57:42.426Z,1.30
2022-10-11T03:58:13.766Z,1.23
2022-10-11T03:58:45.141Z,1.33
2022-10-11T03:59:16.476Z,1.40
2022-10-11T03:59:47.835Z,1.60
2022-10-11T04:00:19.679Z,1.08
2022-10-11T04:00:51.854Z,1.63
2022-10-11T04:01:23.240Z,1.50
2022-10-11T04:01:54.712Z,1.75
2022-10-11T04:02:26.076Z,1.38
2022-10-11T04:02:57.399Z,1.30
2022-10-11T04:03:28.735Z,1.58
2022-10-11T04:04:00.089Z,1.70
2022-10-11T04:04:31.511Z,1.67
2022-10-11T04:05:02.879Z,1.50
2022-10-11T04:05:34.223Z,1.30
2022-10-11T04:06:06.159Z,1.42
2022-10-11T04:06:37.705Z,1.50
2022-10-11T04:07:09.191Z,1.70
2022-10-11T04:07:40.724Z,1.30
2022-10-11T04:08:12.530Z,2.00
2022-10-11T04:08:43.934Z,1.65
2022-10-11T04:09:15.314Z,1.25
2022-10-11T04:09:46.683Z,1.65
2022-10-11T04:10:18.074Z,1.27
2022-10-11T04:10:49.480Z,1.27
2022-10-11T04:11:20.937Z,1.15
2022-10-11T04:11:52.324Z,1.25
2022-10-11T04:12:23.721Z,1.50
2022-10-11T04:12:55.059Z,1.00
2022-10-11T04:13:26.407Z,1.60
2022-10-11T04:13:57.762Z,1.23
2022-10-11T04:14:29.160Z,1.58
2022-10-11T04:15:00.480Z,1.15
2022-10-11T04:15:31.891Z,1.27
2022-10-11T04:16:03.739Z,1.30
2022-10-11T04:16:35.362Z,1.60
2022-10-11T04:17:06.724Z,1.70
2022-10-11T04:17:38.150Z,1.83
2022-10-11T04:18:09.469Z,1.33
2022-10-11T04:18:40.867Z,1.10
2022-10-11T04:19:12.209Z,1.17
2022-10-11T04:19:43.594Z,1.73
2022-10-11T04:20:15.030Z,1.52
2022-10-11T04:20:46.395Z,1.35
2022-10-11T04:21:17.806Z,1.30
2022-10-11T04:21:49.335Z,1.17
2022-10-11T04:22:20.731Z,1.30
2022-10-11T04:22:52.109Z,1.40
2022-10-11T04:23:23.490Z,1.55
2022-10-11T04:23:54.892Z,1.70
2022-10-11T04:24:26.228Z,1.75
2022-10-11T04:24:57.616Z,1.60
2022-10-11T04:25:28.968Z,0.90
2022-10-11T04:26:00.346Z,1.23
2022-10-11T04:26:31.735Z,1.70
2022-10-11T04:27:03.125Z,1.55
2022-10-11T04:27:34.495Z,1.23
2022-10-11T04:28:05.871Z,1.02
2022-10-11T04:28:37.232Z,1.80
2022-10-11T04:29:08.671Z,1.58
2022-10-11T04:29:39.996Z,1.60
2022-10-11T04:30:11.715Z,1.52
2022-10-11T04:30:43.300Z,2.00
2022-10-11T04:31:14.641Z,1.40
2022-10-11T04:31:45.979Z,1.25
2022-10-11T04:32:17.342Z,1.50
2022-10-11T04:32:48.779Z,1.67
2022-10-11T04:33:20.157Z,1.23
2022-10-11T04:33:51.522Z,1.50
2022-10-11T04:34:22.912Z,1.33
2022-10-11T04:34:54.249Z,1.50
2022-10-11T04:35:25.590Z,1.90
2022-10-11T04:35:56.958Z,1.58
2022-10-11T04:36:28.301Z,1.23
2022-10-11T04:36:59.658Z,1.88
2022-10-11T04:37:31.024Z,2.60
2022-10-11T04:38:02.361Z,1.17
2022-10-11T04:38:33.732Z,1.60
2022-10-11T04:39:08.381Z,1.98
2022-10-11T04:39:39.695Z,2.08
2022-10-11T04:40:11.500Z,1.30
2022-10-11T04:40:42.830Z,1.30
2022-10-11T04:41:15.317Z,1.52
2022-10-11T04:41:46.670Z,1.40
2022-10-11T04:42:17.994Z,1.55
2022-10-11T04:42:49.343Z,1.80
2022-10-11T04:43:20.803Z,1.60
2022-10-11T04:43:52.140Z,1.40
2022-10-11T04:44:23.519Z,1.50
2022-10-11T04:44:54.878Z,1.70
2022-10-11T04:45:26.440Z,1.83
2022-10-11T04:45:57.812Z,1.63
2022-10-11T04:46:29.438Z,1.75
2022-10-11T04:47:00.775Z,2.05
2022-10-11T04:47:32.128Z,1.67
2022-10-11T04:48:03.527Z,1.63
2022-10-11T04:48:35.117Z,1.43
2022-10-11T04:49:06.453Z,1.85
2022-10-11T04:49:37.784Z,1.63
2022-10-11T04:50:09.119Z,1.20
2022-10-11T04:50:40.488Z,1.58
2022-10-11T04:51:11.831Z,1.80
2022-10-11T04:51:43.217Z,2.08
2022-10-11T04:52:14.611Z,1.80
2022-10-11T04:52:46.000Z,1.55
2022-10-11T04:53:17.363Z,1.50
2022-10-11T04:53:49.351Z,1.50
2022-10-11T04:54:20.674Z,1.63
2022-10-11T04:54:52.004Z,1.70
2022-10-11T04:55:23.389Z,1.95
2022-10-11T04:56:02.540Z,2.05
2022-10-11T04:56:34.168Z,2.25
2022-10-11T04:57:05.479Z,2.85
2022-10-11T04:57:36.813Z,2.17
2022-10-11T04:58:08.192Z,1.85
2022-10-11T04:58:39.771Z,1.25
2022-10-11T04:59:11.177Z,1.70
2022-10-11T04:59:45.510Z,1.58
2022-10-11T05:00:20.644Z,1.80
2022-10-11T05:00:52.089Z,1.65
2022-10-11T05:01:23.460Z,1.58
2022-10-11T05:01:54.862Z,1.73
2022-10-11T05:02:26.295Z,2.42
2022-10-11T05:02:57.703Z,1.70
2022-10-11T05:03:29.082Z,1.42
2022-10-11T05:04:00.471Z,2.22
2022-10-11T05:04:31.893Z,1.90
2022-10-11T05:05:03.298Z,1.58
2022-10-11T05:05:34.627Z,1.42
2022-10-11T05:06:06.374Z,1.55
2022-10-11T05:06:37.794Z,1.40
2022-10-11T05:07:09.164Z,1.88
2022-10-11T05:07:40.568Z,1.80
2022-10-11T05:08:12.056Z,1.80
2022-10-11T05:08:43.405Z,1.77
2022-10-11T05:09:14.766Z,1.70
2022-10-11T05:09:46.230Z,1.67
2022-10-11T05:10:17.661Z,2.20
2022-10-11T05:10:58.856Z,2.20
2022-10-11T05:11:30.229Z,2.28
2022-10-11T05:12:01.574Z,2.03
2022-10-11T05:12:32.897Z,2.05
2022-10-11T05:13:04.216Z,2.35
2022-10-11T05:13:35.908Z,1.63
2022-10-11T05:14:07.229Z,1.20
2022-10-11T05:14:38.658Z,1.90
2022-10-11T05:15:10.122Z,2.47
2022-10-11T05:15:41.456Z,1.52
2022-10-11T05:16:13.619Z,1.73
2022-10-11T05:16:45.119Z,1.90
2022-10-11T05:17:16.444Z,1.80
2022-10-11T05:17:47.763Z,2.22
2022-10-11T05:18:19.534Z,1.80
2022-10-11T05:18:50.876Z,2.15
2022-10-11T05:19:22.221Z,1.90
2022-10-11T05:19:53.548Z,1.80
2022-10-11T05:20:24.987Z,1.75
2022-10-11T05:21:03.272Z,2.22
2022-10-11T05:21:34.603Z,1.88
2022-10-11T05:22:05.960Z,1.63
2022-10-11T05:22:37.309Z,1.50
2022-10-11T05:23:08.652Z,1.95
2022-10-11T05:23:40.013Z,1.70
2022-10-11T05:24:11.372Z,2.60
2022-10-11T05:24:43.042Z,2.03
2022-10-11T05:25:14.422Z,1.95
2022-10-11T05:25:45.782Z,2.17
2022-10-11T05:26:18.138Z,2.50
2022-10-11T05:26:49.478Z,2.20
2022-10-11T05:27:20.871Z,2.00
2022-10-11T05:27:52.283Z,3.38
2022-10-11T05:28:23.721Z,2.03
2022-10-11T05:28:55.430Z,1.95
2022-10-11T05:29:27.063Z,2.50
2022-10-11T05:29:58.452Z,2.13
2022-10-11T05:30:29.848Z,1.23
2022-10-11T05:31:01.202Z,1.95
2022-10-11T05:31:32.800Z,2.10
2022-10-11T05:32:04.288Z,2.10
2022-10-11T05:32:35.673Z,2.00
2022-10-11T05:33:07.021Z,2.20
2022-10-11T05:33:38.660Z,1.73
2022-10-11T05:34:09.986Z,1.45
2022-10-11T05:34:41.352Z,1.40
2022-10-11T05:35:12.758Z,1.60
2022-10-11T05:35:44.311Z,2.00
2022-10-11T05:36:15.796Z,1.77
2022-10-11T05:36:47.129Z,2.17
2022-10-11T05:37:19.699Z,1.70
2022-10-11T05:37:51.099Z,1.30
2022-10-11T05:38:22.640Z,2.15
2022-10-11T05:38:53.998Z,1.52
2022-10-11T05:39:25.407Z,2.13
2022-10-11T05:39:56.787Z,1.50
2022-10-11T05:40:28.113Z,2.00
2022-10-11T05:41:00.015Z,1.70
2022-10-11T05:41:31.512Z,1.70
2022-10-11T05:42:06.522Z,2.10
2022-10-11T05:42:40.408Z,1.88
2022-10-11T05:43:12.083Z,1.95
2022-10-11T05:43:43.474Z,1.65
2022-10-11T05:44:14.978Z,2.83
2022-10-11T05:44:46.322Z,1.90
2022-10-11T05:45:17.796Z,1.90
2022-10-11T05:45:49.147Z,2.03
2022-10-11T05:46:20.484Z,1.88
2022-10-11T05:46:51.926Z,2.10
2022-10-11T05:47:23.289Z,1.42
2022-10-11T05:47:54.632Z,1.80
2022-10-11T05:48:26.060Z,2.00
2022-10-11T05:48:57.384Z,2.45
2022-10-11T05:49:28.785Z,1.87
2022-10-11T05:50:00.115Z,1.73
2022-10-11T05:50:31.768Z,1.70
2022-10-11T05:51:04.483Z,1.92
2022-10-11T05:51:35.924Z,1.80
2022-10-11T05:52:07.312Z,2.03
2022-10-11T05:52:38.643Z,1.77
2022-10-11T05:53:10.064Z,1.98
2022-10-11T05:53:41.408Z,1.52
2022-10-11T05:54:12.903Z,1.75
2022-10-11T05:54:44.237Z,2.05
2022-10-11T05:55:15.680Z,1.80
2022-10-11T05:55:47.065Z,1.67
2022-10-11T05:56:20.219Z,1.73
2022-10-11T05:56:51.549Z,2.20
2022-10-11T05:57:22.876Z,2.90
2022-10-11T05:57:54.755Z,2.27
2022-10-11T05:58:26.327Z,1.80
2022-10-11T05:59:02.018Z,2.53
2022-10-11T05:59:34.902Z,1.80
2022-10-11T06:00:06.590Z,1.80
2022-10-11T06:00:38.134Z,1.70
2022-10-11T06:01:16.094Z,1.90
2022-10-11T06:01:48.617Z,1.58
2022-10-11T06:02:20.297Z,1.77
2022-10-11T06:02:51.669Z,1.83
2022-10-11T06:03:23.028Z,1.73
2022-10-11T06:03:54.363Z,1.80
2022-10-11T06:04:25.683Z,1.15
2022-10-11T06:04:56.989Z,1.77
2022-10-11T06:05:28.354Z,1.45
2022-10-11T06:06:02.355Z,1.55
2022-10-11T06:06:33.768Z,1.80
2022-10-11T06:07:05.605Z,2.08
2022-10-11T06:07:37.427Z,1.70
2022-10-11T06:08:09.266Z,1.60
2022-10-11T06:08:40.787Z,1.70
2022-10-11T06:09:12.201Z,1.50
2022-10-11T06:09:43.530Z,1.80
2022-10-11T06:10:14.910Z,2.60
2022-10-11T06:10:46.254Z,2.03
2022-10-11T06:11:19.546Z,1.77
2022-10-11T06:11:50.908Z,2.40
2022-10-11T06:12:22.259Z,1.55
2022-10-11T06:12:53.721Z,1.77
2022-10-11T06:13:25.037Z,1.95
2022-10-11T06:13:57.558Z,1.90
2022-10-11T06:14:28.865Z,2.07
2022-10-11T06:15:00.201Z,1.90
2022-10-11T06:15:31.531Z,2.00
2022-10-11T06:16:06.718Z,2.22
2022-10-11T06:16:38.434Z,1.70
2022-10-11T06:17:09.972Z,1.98
2022-10-11T06:17:41.316Z,2.13
2022-10-11T06:18:12.661Z,1.88
2022-10-11T06:18:43.999Z,1.50
2022-10-11T06:19:15.361Z,2.10
2022-10-11T06:19:46.675Z,2.20
2022-10-11T06:20:18.007Z,2.47
2022-10-11T06:20:49.330Z,1.70
2022-10-11T06:21:20.923Z,1.95
2022-10-11T06:21:52.242Z,2.30
2022-10-11T06:22:23.584Z,1.95
2022-10-11T06:22:54.902Z,2.00
2022-10-11T06:23:26.259Z,2.05
2022-10-11T06:24:01.326Z,1.98
2022-10-11T06:24:32.935Z,2.00
2022-10-11T06:25:04.466Z,1.93
2022-10-11T06:25:35.814Z,2.83
2022-10-11T06:26:08.601Z,1.90
2022-10-11T06:26:40.550Z,1.85
2022-10-11T06:27:12.289Z,1.67
2022-10-11T06:27:43.871Z,2.22
2022-10-11T06:28:15.277Z,1.88
2022-10-11T06:28:46.853Z,2.30
2022-10-11T06:29:18.260Z,2.25
2022-10-11T06:29:49.568Z,1.95
2022-10-11T06:30:20.987Z,2.30
2022-10-11T06:30:52.327Z,2.15
2022-10-11T06:31:23.659Z,2.00
2022-10-11T06:31:54.995Z,2.30
2022-10-11T06:32:26.602Z,2.20
2022-10-11T06:33:02.387Z,2.30
2022-10-11T06:33:36.009Z,1.98
2022-10-11T06:34:07.431Z,2.05
2022-10-11T06:34:38.835Z,2.60
2022-10-11T06:35:10.201Z,2.05
2022-10-11T06:35:41.620Z,2.30
2022-10-11T06:36:13.901Z,2.28
2022-10-11T06:36:45.268Z,1.83
2022-10-11T06:37:16.613Z,1.50
2022-10-11T06:37:47.954Z,1.90
2022-10-11T06:38:19.355Z,2.40
2022-10-11T06:38:54.367Z,2.45
2022-10-11T06:39:25.705Z,1.77
2022-10-11T06:39:57.025Z,1.77
2022-10-11T06:40:28.365Z,2.13
2022-10-11T06:41:18.577Z,1.85
2022-10-11T06:41:49.938Z,2.13
2022-10-11T06:42:21.363Z,2.03
2022-10-11T06:42:52.686Z,1.85
2022-10-11T06:43:26.750Z,2.45
2022-10-11T06:43:58.114Z,1.50
2022-10-11T06:44:29.463Z,2.45
2022-10-11T06:45:00.845Z,2.03
2022-10-11T06:45:32.271Z,2.03
2022-10-11T06:46:03.969Z,2.00
2022-10-11T06:46:35.491Z,1.98
2022-10-11T06:47:07.210Z,2.00
2022-10-11T06:47:38.611Z,2.17
2022-10-11T06:48:09.987Z,2.30
2022-10-11T06:48:45.135Z,1.88
2022-10-11T06:49:22.203Z,2.30
2022-10-11T06:49:54.543Z,2.80
2022-10-11T06:50:47.125Z,1.83
2022-10-11T06:51:18.466Z,2.17
2022-10-11T06:51:49.831Z,2.03
2022-10-11T06:52:21.217Z,2.17
2022-10-11T06:52:53.024Z,2.22
2022-10-11T06:53:24.415Z,1.92
2022-10-11T06:53:57.030Z,2.13
2022-10-11T06:54:28.378Z,2.00
2022-10-11T06:54:59.746Z,2.05
2022-10-11T06:55:31.711Z,2.45
2022-10-11T06:56:08.010Z,2.78
2022-10-11T06:56:39.921Z,2.25
2022-10-11T06:57:11.350Z,2.22
2022-10-11T06:57:42.723Z,2.20
2022-10-11T06:58:14.074Z,2.20
2022-10-11T06:58:45.418Z,2.08
2022-10-11T06:59:16.931Z,2.05
2022-10-11T06:59:48.295Z,2.47
2022-10-11T07:00:19.665Z,2.28
2022-10-11T07:00:51.074Z,2.72
2022-10-11T07:01:22.819Z,2.50
2022-10-11T07:01:54.169Z,2.50
2022-10-11T07:02:25.537Z,2.45
2022-10-11T07:02:56.904Z,2.05
2022-10-11T07:03:29.284Z,2.85
2022-10-11T07:04:00.627Z,2.50
2022-10-11T07:04:32.010Z,2.05
2022-10-11T07:05:03.389Z,2.67
2022-10-11T07:05:34.780Z,2.80
2022-10-11T07:06:07.938Z,2.05
2022-10-11T07:06:40.876Z,2.47
2022-10-11T07:07:15.281Z,1.77
2022-10-11T07:07:46.630Z,2.23
2022-10-11T07:08:18.007Z,3.17
2022-10-11T07:08:49.394Z,2.25
2022-10-11T07:09:20.725Z,2.70
2022-10-11T07:09:52.094Z,2.15
2022-10-11T07:10:23.449Z,2.53
2022-10-11T07:10:59.717Z,2.80
2022-10-11T07:11:31.079Z,2.40
2022-10-11T07:12:02.456Z,2.20
2022-10-11T07:12:33.829Z,2.60
2022-10-11T07:13:05.198Z,2.83
2022-10-11T07:13:36.724Z,2.78
2022-10-11T07:14:08.183Z,2.25
2022-10-11T07:14:39.570Z,2.83
2022-10-11T07:15:11.296Z,2.92
2022-10-11T07:15:42.664Z,2.58
2022-10-11T07:16:14.006Z,3.20
2022-10-11T07:16:45.340Z,2.50
2022-10-11T07:17:16.738Z,2.47
2022-10-11T07:17:48.084Z,2.05
2022-10-11T07:18:19.519Z,2.60
2022-10-11T07:18:59.880Z,2.28
2022-10-11T07:19:32.013Z,2.67